createdAt,value
2022-11-15T00:00:58.052Z,8.85
2022-11-15T00:03:45.937Z,10.07
2022-11-15T00:06:33.348Z,13.90
2022-11-15T00:09:22.537Z,8.95
2022-11-15T00:12:11.786Z,9.82
2022-11-15T00:15:01.014Z,9.35
2022-11-15T00:17:51.964Z,11.88
2022-11-15T00:20:40.773Z,11.63
2022-11-15T00:23:27.938Z,11.20
2022-11-15T00:26:16.263Z,10.50
2022-11-15T00:29:03.409Z,10.68
2022-11-15T00:31:55.787Z,10.57
2022-11-15T00:34:43.274Z,11.18
2022-11-15T00:37:30.534Z,11.80
2022-11-15T00:40:20.271Z,11.95
2022-11-15T00:43:07.412Z,12.63
2022-11-15T00:45:54.754Z,13.60
2022-11-15T00:48:41.865Z,14.73
2022-11-15T00:51:29.078Z,14.57
2022-11-15T00:54:17.049Z,14.20
2022-11-15T00:57:07.043Z,13.63
2022-11-15T00:59:54.158Z,12.88
2022-11-15T01:02:43.937Z,12.45
2022-11-15T01:05:33.738Z,11.52
2022-11-15T01:08:20.944Z,10.82
2022-11-15T01:11:11.268Z,7.57
2022-11-15T01:14:00.545Z,10.27
2022-11-15T01:16:47.574Z,10.35
2022-11-15T01:19:34.663Z,10.68
2022-11-15T01:22:21.785Z,9.63
2022-11-15T01:25:08.881Z,9.82
2022-11-15T01:27:56.038Z,8.95
2022-11-15T01:30:44.107Z,9.55
2022-11-15T01:33:32.180Z,9.75
2022-11-15T01:36:25.030Z,10.35
2022-11-15T01:39:14.439Z,10.40
2022-11-15T01:42:01.588Z,9.60
2022-11-15T01:44:55.156Z,9.52
2022-11-15T01:47:47.338Z,9.35
2022-11-15T01:50:36.638Z,9.95
2022-11-15T01:53:25.800Z,7.82
2022-11-15T01:56:21.425Z,8.70
2022-11-15T01:59:12.615Z,8.07
2022-11-15T02:02:01.904Z,7.78
2022-11-15T02:04:49.166Z,8.40
2022-11-15T02:07:37.215Z,8.45
2022-11-15T02:10:25.381Z,7.72
2022-11-15T02:13:12.481Z,8.55
2022-11-15T02:16:24.676Z,7.90
2022-11-15T02:19:26.109Z,8.50
2022-11-15T02:22:47.091Z,7.35
2022-11-15T02:26:01.868Z,7.43
2022-11-15T02:29:14.768Z,7.07
2022-11-15T02:32:16.814Z,7.50
2022-11-15T02:35:17.776Z,5.13
2022-11-15T02:38:28.523Z,6.47
2022-11-15T02:41:24.939Z,6.07
2022-11-15T02:44:20.167Z,6.80
2022-11-15T02:47:16.833Z,6.00
2022-11-15T02:50:09.921Z,6.53
2022-11-15T02:52:57.585Z,6.10
2022-11-15T02:55:52.022Z,6.10
2022-11-15T02:58:59.722Z,6.20
2022-11-15T03:01:46.773Z,5.68
2022-11-15T03:04:51.767Z,6.10
2022-11-15T03:07:49.028Z,6.05
2022-11-15T03:10:57.816Z,5.82
2022-11-15T03:14:03.604Z,5.07
2022-11-15T03:17:02.557Z,5.82
2022-11-15T03:19:53.481Z,5.75
2022-11-15T03:22:45.067Z,5.00
2022-11-15T03:25:34.719Z,5.05
2022-11-15T03:28:27.155Z,5.97
2022-11-15T03:31:35.130Z,7.18
2022-11-15T03:34:33.905Z,5.80
2022-11-15T03:37:28.578Z,6.15
2022-11-15T03:40:17.538Z,7.53
2022-11-15T03:43:31.674Z,6.22
2022-11-15T03:46:28.779Z,6.60
2022-11-15T03:49:34.998Z,5.93
2022-11-15T03:52:25.671Z,6.70
2022-11-15T03:55:17.192Z,5.78
2022-11-15T03:58:04.357Z,6.07
2022-11-15T04:00:51.533Z,5.47
2022-11-15T04:03:41.055Z,6.00
2022-11-15T04:06:28.519Z,5.38
2022-11-15T04:09:15.682Z,5.60
2022-11-15T04:12:02.807Z,5.63
2022-11-15T04:15:08.066Z,5.45
2022-11-15T04:17:58.370Z,5.53
2022-11-15T04:21:04.299Z,5.60
2022-11-15T04:23:54.364Z,5.72
2022-11-15T04:26:41.495Z,5.60
2022-11-15T04:29:37.616Z,5.43
2022-11-15T04:32:26.883Z,5.35
2022-11-15T04:35:16.198Z,6.10
2022-11-15T04:38:05.114Z,6.80
2022-11-15T04:40:54.371Z,5.80
2022-11-15T04:43:41.449Z,5.72
2022-11-15T04:46:28.780Z,5.63
2022-11-15T04:49:15.857Z,6.18
2022-11-15T04:52:03.068Z,6.25
2022-11-15T04:54:53.636Z,6.63
2022-11-15T04:57:40.758Z,5.40
2022-11-15T05:00:29.398Z,5.90
2022-11-15T05:03:34.976Z,5.55
2022-11-15T05:06:23.913Z,6.03
2022-11-15T05:09:11.245Z,6.95
2022-11-15T05:11:58.350Z,6.53
2022-11-15T05:14:45.418Z,6.60
2022-11-15T05:17:33.006Z,9.15
2022-11-15T05:20:22.312Z,7.15
2022-11-15T05:23:12.009Z,8.35
2022-11-15T05:26:08.812Z,7.97
2022-11-15T05:28:58.188Z,14.20
2022-11-15T05:32:09.474Z,10.68
2022-11-15T05:34:56.932Z,9.88
2022-11-15T05:37:46.651Z,9.05
2022-11-15T05:40:35.028Z,8.98
2022-11-15T05:43:23.578Z,8.77
2022-11-15T05:46:10.979Z,8.40
2022-11-15T05:49:00.999Z,8.52
2022-11-15T05:51:49.272Z,8.35
2022-11-15T05:54:38.047Z,9.30
2022-11-15T05:57:25.385Z,8.57
2022-11-15T06:00:13.129Z,8.52
2022-11-15T06:03:02.792Z,9.20
2022-11-15T06:05:49.879Z,8.95
2022-11-15T06:08:36.941Z,8.13
2022-11-15T06:11:26.757Z,8.20
2022-11-15T06:14:16.063Z,7.88
2022-11-15T06:17:08.571Z,8.20
2022-11-15T06:19:58.204Z,8.63
2022-11-15T06:22:45.308Z,7.40
2022-11-15T06:25:32.993Z,8.00
2022-11-15T06:28:20.341Z,7.65
2022-11-15T06:31:15.988Z,8.45
2022-11-15T06:34:05.686Z,7.70
2022-11-15T06:36:52.732Z,8.30
2022-11-15T06:39:39.812Z,7.45
2022-11-15T06:42:26.888Z,8.30
2022-11-15T06:45:14.355Z,8.35
2022-11-15T06:48:01.528Z,8.02
2022-11-15T06:50:59.959Z,8.82
2022-11-15T06:53:47.205Z,9.32
2022-11-15T06:56:37.512Z,9.60
2022-11-15T06:59:30.667Z,8.82
2022-11-15T07:02:21.508Z,9.60
2022-11-15T07:05:08.761Z,8.43
2022-11-15T07:07:56.756Z,7.85
2022-11-15T07:10:43.850Z,10.75
2022-11-15T07:13:35.627Z,9.73
2022-11-15T07:16:25.489Z,11.27
2022-11-15T07:19:12.579Z,12.90
2022-11-15T07:21:59.656Z,12.50
2022-11-15T07:24:46.782Z,10.07
2022-11-15T07:27:34.236Z,7.60
2022-11-15T07:30:21.591Z,7.60
2022-11-15T07:33:08.629Z,8.73
2022-11-15T07:36:02.509Z,9.68
2022-11-15T07:38:52.268Z,13.07
2022-11-15T07:41:39.826Z,9.18
2022-11-15T07:44:29.563Z,5.75
2022-11-15T07:47:18.836Z,4.97
2022-11-15T07:50:09.042Z,4.90
2022-11-15T07:52:58.640Z,3.80
2022-11-15T07:55:45.808Z,3.28
2022-11-15T07:58:33.145Z,3.17
2022-11-15T08:01:21.543Z,3.42
2022-11-15T08:04:08.659Z,4.65
2022-11-15T08:06:55.738Z,4.68
2022-11-15T08:09:45.070Z,4.00
2022-11-15T08:12:33.478Z,4.32
2022-11-15T08:15:20.748Z,3.95
2022-11-15T08:18:12.812Z,3.78
2022-11-15T08:21:01.561Z,3.67
2022-11-15T08:23:51.452Z,3.80
2022-11-15T08:26:41.184Z,4.38
2022-11-15T08:29:28.323Z,4.30
2022-11-15T08:32:25.231Z,3.90
2022-11-15T08:35:12.305Z,4.65
2022-11-15T08:38:01.843Z,4.18
2022-11-15T08:40:49.223Z,3.35
2022-11-15T08:43:36.459Z,3.83
2022-11-15T08:46:24.960Z,3.35
2022-11-15T08:49:14.587Z,3.47
2022-11-15T08:52:01.681Z,3.78
2022-11-15T08:54:52.015Z,3.92
2022-11-15T08:57:39.199Z,4.18
2022-11-15T09:00:29.363Z,4.95
2022-11-15T09:03:16.579Z,3.92
2022-11-15T09:06:06.088Z,3.40
2022-11-15T09:08:53.524Z,2.95
2022-11-15T09:11:42.331Z,3.88
2022-11-15T09:14:32.107Z,3.92
2022-11-15T09:17:24.472Z,4.25
2022-11-15T09:20:14.864Z,3.35
2022-11-15T09:23:05.475Z,3.40
2022-11-15T09:25:55.270Z,3.30
2022-11-15T09:28:43.637Z,2.50
2022-11-15T09:31:31.128Z,2.40
2022-11-15T09:34:18.302Z,2.78
2022-11-15T09:37:07.829Z,2.83
2022-11-15T09:43:11.846Z,2.67
2022-11-15T09:46:16.412Z,2.83
2022-11-15T09:49:04.967Z,2.58
2022-11-15T09:51:57.697Z,2.65
2022-11-15T09:58:13.595Z,3.05
2022-11-15T10:01:12.108Z,3.22
2022-11-15T10:04:00.378Z,2.83
2022-11-15T10:07:05.532Z,2.85
2022-11-15T10:10:16.633Z,3.20
2022-11-15T10:13:05.793Z,3.00
2022-11-15T10:16:00.661Z,3.33
2022-11-15T10:19:19.013Z,3.35
2022-11-15T10:22:15.275Z,3.10
2022-11-15T10:25:24.342Z,3.22
2022-11-15T10:28:28.886Z,2.88
2022-11-15T10:31:30.625Z,2.80
2022-11-15T10:34:21.348Z,3.60
2022-11-15T10:37:08.696Z,2.05
2022-11-15T10:40:18.455Z,2.20
2022-11-15T10:43:10.329Z,1.63
2022-11-15T10:46:45.042Z,1.87
2022-11-15T10:49:31.467Z,1.85
2022-11-15T10:52:31.683Z,1.90
2022-11-15T10:55:19.278Z,2.17
2022-11-15T10:58:21.447Z,1.70
2022-11-15T11:01:18.663Z,1.60
2022-11-15T11:04:11.870Z,1.70
2022-11-15T11:07:00.911Z,1.70
2022-11-15T11:10:13.284Z,1.77
2022-11-15T11:13:15.515Z,1.88
2022-11-15T11:16:39.120Z,1.55
2022-11-15T11:19:42.285Z,2.13
2022-11-15T11:25:43.569Z,2.17
2022-11-15T11:28:51.897Z,1.80
2022-11-15T11:31:51.018Z,2.00
2022-11-15T11:34:56.492Z,1.80
2022-11-15T11:38:02.062Z,1.90
2022-11-15T11:41:26.755Z,1.63
2022-11-15T11:44:16.850Z,1.70
2022-11-15T11:47:26.004Z,1.77
2022-11-15T11:50:27.762Z,1.80
2022-11-15T11:53:32.298Z,1.63
2022-11-15T11:56:33.360Z,1.77
2022-11-15T12:00:05.493Z,1.63
2022-11-15T12:03:12.218Z,1.70
2022-11-15T12:06:06.733Z,1.67
2022-11-15T12:09:04.094Z,1.77
2022-11-15T12:12:07.723Z,2.55
2022-11-15T12:15:11.165Z,1.75
2022-11-15T12:17:59.342Z,1.85
2022-11-15T12:20:58.319Z,1.75
2022-11-15T12:23:55.866Z,1.77
2022-11-15T12:26:53.238Z,2.20
2022-11-15T12:29:54.029Z,1.60
2022-11-15T12:33:00.216Z,1.95
2022-11-15T12:36:01.008Z,2.15
2022-11-15T12:39:01.627Z,2.10
2022-11-15T12:41:57.690Z,1.90
2022-11-15T12:44:50.712Z,1.70
2022-11-15T12:47:37.971Z,1.88
2022-11-15T12:50:55.932Z,1.77
2022-11-15T12:53:43.361Z,1.70
2022-11-15T12:56:37.928Z,1.80
2022-11-15T12:59:51.187Z,2.00
2022-11-15T13:02:50.625Z,1.45
2022-11-15T13:05:37.723Z,2.28
2022-11-15T13:08:48.324Z,1.80
2022-11-15T13:11:47.664Z,2.03
2022-11-15T13:15:00.106Z,1.83
2022-11-15T13:17:48.251Z,2.00
2022-11-15T13:20:35.951Z,2.00
2022-11-15T13:23:25.887Z,2.10
2022-11-15T13:26:21.793Z,1.95
2022-11-15T13:29:20.690Z,2.20
2022-11-15T13:32:16.750Z,1.92
2022-11-15T13:35:09.022Z,2.05
2022-11-15T13:37:57.467Z,1.85
2022-11-15T13:40:45.145Z,1.80
2022-11-15T13:43:40.489Z,2.50
2022-11-15T13:46:33.998Z,2.00
2022-11-15T13:49:31.602Z,2.00
2022-11-15T13:52:20.146Z,2.13
2022-11-15T13:55:19.268Z,2.28
2022-11-15T13:58:08.621Z,2.35
2022-11-15T14:05:04.440Z,2.40
2022-11-15T14:08:07.004Z,2.10
2022-11-15T14:11:10.856Z,2.90
2022-11-15T14:14:09.391Z,2.47
2022-11-15T14:17:04.097Z,1.90
2022-11-15T14:19:57.099Z,2.40
2022-11-15T14:22:57.035Z,2.25
2022-11-15T14:26:01.914Z,2.20
2022-11-15T14:28:50.119Z,2.42
2022-11-15T14:31:44.352Z,2.58
2022-11-15T14:34:33.496Z,2.63
2022-11-15T14:37:25.098Z,3.38
2022-11-15T14:40:18.253Z,3.30
2022-11-15T14:43:09.294Z,3.35
2022-11-15T14:45:59.278Z,2.50
2022-11-15T14:48:46.938Z,2.83
2022-11-15T14:51:37.014Z,3.85
2022-11-15T14:54:24.380Z,3.50
2022-11-15T14:57:13.936Z,3.08
2022-11-15T15:00:05.977Z,4.03
2022-11-15T15:03:00.170Z,4.30
2022-11-15T15:05:50.732Z,4.13
2022-11-15T15:08:40.410Z,3.90
2022-11-15T15:11:33.518Z,3.30
2022-11-15T15:15:02.740Z,3.30
2022-11-15T15:17:44.205Z,3.33
2022-11-15T15:20:36.470Z,3.53
2022-11-15T15:23:26.077Z,3.83
2022-11-15T15:26:13.420Z,4.38
2022-11-15T15:29:10.504Z,5.80
2022-11-15T15:31:59.168Z,4.50
2022-11-15T15:34:48.801Z,4.93
2022-11-15T15:37:36.485Z,13.25
2022-11-15T15:40:49.633Z,5.65
2022-11-15T15:43:37.550Z,5.70
2022-11-15T15:46:25.685Z,5.33
2022-11-15T15:49:16.298Z,5.90
2022-11-15T15:52:10.141Z,4.88
2022-11-15T15:55:00.740Z,5.05
2022-11-15T15:57:48.544Z,8.13
2022-11-15T16:00:42.120Z,6.43
2022-11-15T16:03:33.976Z,5.25
2022-11-15T16:06:40.185Z,5.67
2022-11-15T16:09:46.327Z,5.07
2022-11-15T16:12:36.685Z,5.60
2022-11-15T16:15:26.207Z,5.18
2022-11-15T16:18:18.399Z,5.30
2022-11-15T16:21:05.606Z,18.40
2022-11-15T16:23:52.701Z,10.65
2022-11-15T16:26:40.135Z,15.07
2022-11-15T16:29:27.579Z,9.93
2022-11-15T16:32:15.216Z,11.52
2022-11-15T16:35:02.497Z,7.25
2022-11-15T16:37:51.367Z,6.10
2022-11-15T16:40:38.838Z,8.05
2022-11-15T16:43:26.617Z,12.05
2022-11-15T16:46:23.309Z,5.80
2022-11-15T16:49:18.736Z,5.88
2022-11-15T16:52:09.011Z,6.80
2022-11-15T16:54:56.404Z,5.72
2022-11-15T16:57:44.234Z,4.93
2022-11-15T17:00:32.027Z,5.07
2022-11-15T17:03:19.686Z,7.40
2022-11-15T17:06:09.443Z,5.88
2022-11-15T17:08:57.662Z,7.00
2022-11-15T17:11:52.076Z,6.90
2022-11-15T17:14:39.486Z,6.63
2022-11-15T17:17:27.987Z,7.30
2022-11-15T17:20:17.940Z,6.85
2022-11-15T17:23:07.157Z,7.35
2022-11-15T17:26:28.407Z,6.63
2022-11-15T17:29:14.538Z,5.80
2022-11-15T17:32:05.247Z,5.22
2022-11-15T17:34:54.700Z,6.35
2022-11-15T17:37:42.242Z,8.95
2022-11-15T17:40:31.916Z,8.20
2022-11-15T17:43:19.050Z,7.20
2022-11-15T17:46:08.962Z,7.20
2022-11-15T17:48:58.306Z,6.70
2022-11-15T17:51:49.828Z,6.07
2022-11-15T17:54:37.579Z,6.13
2022-11-15T17:57:24.844Z,6.93
2022-11-15T18:00:13.290Z,6.22
2022-11-15T18:03:00.556Z,7.18
2022-11-15T18:05:48.297Z,6.90
2022-11-15T18:08:40.930Z,7.20
2022-11-15T18:11:31.104Z,7.93
2022-11-15T18:14:19.783Z,7.32
2022-11-15T18:17:07.125Z,8.40
2022-11-15T18:19:54.476Z,10.73
2022-11-15T18:22:43.584Z,11.02
2022-11-15T18:25:34.272Z,11.50
2022-11-15T18:28:22.593Z,13.90
2022-11-15T18:31:24.164Z,12.20
2022-11-15T18:34:12.668Z,10.38
2022-11-15T18:37:01.432Z,8.50
2022-11-15T18:39:52.871Z,7.82
2022-11-15T18:42:44.372Z,7.72
2022-11-15T18:45:34.928Z,7.18
2022-11-15T18:48:22.668Z,6.35
2022-11-15T18:51:13.030Z,6.97
2022-11-15T18:54:02.626Z,6.93
2022-11-15T18:56:54.762Z,5.63
2022-11-15T18:59:42.163Z,6.10
2022-11-15T19:02:30.220Z,11.00
2022-11-15T19:05:21.516Z,15.27
2022-11-15T19:08:09.122Z,68.75
2022-11-15T19:11:02.267Z,14.05
2022-11-15T19:13:56.245Z,23.95
2022-11-15T19:16:52.924Z,8.95
2022-11-15T19:19:40.709Z,7.47
2022-11-15T19:22:28.010Z,9.13
2022-11-15T19:25:15.688Z,8.25
2022-11-15T19:28:03.389Z,13.68
2022-11-15T19:30:51.263Z,9.35
2022-11-15T19:33:39.718Z,9.27
2022-11-15T19:36:34.765Z,8.93
2022-11-15T19:39:24.687Z,9.10
2022-11-15T19:42:12.188Z,10.15
2022-11-15T19:45:02.414Z,9.90
2022-11-15T19:47:49.687Z,9.75
2022-11-15T19:50:37.927Z,9.77
2022-11-15T19:53:27.351Z,10.75
2022-11-15T19:56:19.090Z,10.52
2022-11-15T19:59:06.862Z,9.30
2022-11-15T20:01:54.341Z,7.65
2022-11-15T20:04:42.328Z,8.45
2022-11-15T20:07:32.364Z,7.93
2022-11-15T20:10:21.805Z,8.60
2022-11-15T20:13:11.908Z,8.55
2022-11-15T20:15:59.773Z,11.93
2022-11-15T20:18:48.464Z,9.75
2022-11-15T20:21:38.328Z,10.43
2022-11-15T20:24:28.110Z,10.80
2022-11-15T20:27:16.089Z,8.55
2022-11-15T20:30:05.566Z,8.38
2022-11-15T20:32:52.713Z,10.15
2022-11-15T20:35:41.219Z,9.10
2022-11-15T20:38:28.550Z,8.60
2022-11-15T20:41:16.083Z,9.68
2022-11-15T20:44:03.353Z,9.65
2022-11-15T20:46:53.169Z,12.20
2022-11-15T20:49:43.831Z,12.38
2022-11-15T20:52:33.546Z,11.48
2022-11-15T20:55:20.744Z,9.95
2022-11-15T20:58:09.354Z,9.82
2022-11-15T21:00:56.688Z,9.13
2022-11-15T21:03:43.961Z,14.38
2022-11-15T21:06:31.569Z,15.23
2022-11-15T21:09:39.750Z,14.23
2022-11-15T21:12:29.484Z,12.98
2022-11-15T21:15:22.419Z,12.00
2022-11-15T21:18:14.732Z,11.93
2022-11-15T21:21:04.116Z,11.80
2022-11-15T21:23:51.399Z,13.48
2022-11-15T21:26:41.037Z,12.65
2022-11-15T21:29:38.104Z,12.77
2022-11-15T21:32:25.441Z,12.10
2022-11-15T21:35:15.263Z,14.02
2022-11-15T21:38:02.519Z,22.48
2022-11-15T21:40:53.351Z,18.00
2022-11-15T21:43:40.658Z,17.45
2022-11-15T21:46:31.497Z,15.35
2022-11-15T21:49:18.914Z,13.38
2022-11-15T21:52:06.225Z,10.60
2022-11-15T21:54:55.873Z,9.30
2022-11-15T21:57:43.129Z,9.23
2022-11-15T22:00:49.023Z,7.90
2022-11-15T22:03:36.478Z,8.38
2022-11-15T22:06:24.541Z,9.15
2022-11-15T22:09:12.131Z,8.20
2022-11-15T22:12:04.220Z,8.02
2022-11-15T22:14:51.671Z,7.32
2022-11-15T22:17:57.647Z,7.30
2022-11-15T22:21:02.707Z,7.68
2022-11-15T22:23:50.309Z,8.00
2022-11-15T22:26:37.712Z,10.40
2022-11-15T22:29:24.982Z,14.63
2022-11-15T22:32:12.565Z,14.95
2022-11-15T22:35:01.840Z,16.92
2022-11-15T22:37:51.341Z,15.82
2022-11-15T22:40:39.480Z,11.77
2022-11-15T22:43:27.698Z,10.20
2022-11-15T22:46:15.610Z,10.73
2022-11-15T22:49:03.695Z,10.88
2022-11-15T22:51:50.885Z,11.52
2022-11-15T22:54:38.604Z,11.23
2022-11-15T22:57:26.057Z,10.65
2022-11-15T23:00:16.125Z,9.35
2022-11-15T23:03:06.034Z,8.60
2022-11-15T23:05:53.686Z,8.57
2022-11-15T23:08:41.404Z,7.18
2022-11-15T23:11:47.538Z,7.13
2022-11-15T23:14:34.911Z,6.20
2022-11-15T23:17:23.600Z,5.60
2022-11-15T23:20:36.833Z,5.35
2022-11-15T23:23:21.122Z,5.53
2022-11-15T23:26:09.149Z,5.28
2022-11-15T23:28:58.867Z,6.10
2022-11-15T23:32:05.044Z,6.15
2022-11-15T23:34:52.327Z,6.60
2022-11-15T23:37:39.698Z,6.25
2022-11-15T23:40:30.411Z,5.57
2022-11-15T23:43:18.581Z,6.30
2022-11-15T23:46:05.983Z,5.90
2022-11-15T23:48:53.390Z,6.63
2022-11-15T23:51:42.929Z,6.70
2022-11-15T23:54:30.819Z,7.03
2022-11-15T23:57:18.042Z,7.50
